Time;durP1;ratioP1;P1;durP2;ratioP2;P2;SDS_P1;SDS_P2;PMS_P1;PMS_P2;Temp;Humidity;BMP_temperature;BMP_pressure;BME280_temperature;BME280_humidity;BME280_pressure;Samples;Min_cycle;Max_cycle;Signal;HPM_P1;HPM_P2
2021/03/20 00:02:02;;;;;;;11.20;8.50;;;6.30;51.10;;;;;;5010273;28;20452;-42
2021/03/20 00:04:28;;;;;;;10.23;8.43;;;6.20;51.40;;;;;;5001404;28;20709;-42
2021/03/20 00:06:55;;;;;;;14.50;9.63;;;6.20;52.00;;;;;;5008798;28;20437;-42
2021/03/20 00:09:25;;;;;;;11.10;8.70;;;6.20;52.30;;;;;;5010373;28;20280;-42
2021/03/20 00:11:53;;;;;;;14.07;10.27;;;6.20;51.80;;;;;;5008434;28;20493;-42
2021/03/20 00:14:22;;;;;;;12.10;9.60;;;6.10;51.90;;;;;;5010977;28;20456;-41
2021/03/20 00:16:48;;;;;;;11.73;9.07;;;6.10;52.10;;;;;;5010074;28;20939;-41
2021/03/20 00:19:14;;;;;;;14.03;9.50;;;6.10;52.10;;;;;;5002661;28;20448;-41
2021/03/20 00:21:40;;;;;;;10.23;8.10;;;6.10;52.10;;;;;;5004116;28;20454;-42
2021/03/20 00:24:06;;;;;;;11.63;8.80;;;6.10;52.00;;;;;;5007777;28;20802;-41
2021/03/20 00:26:32;;;;;;;11.30;8.33;;;6.00;51.80;;;;;;5008566;28;20198;-41
2021/03/20 00:28:58;;;;;;;12.43;8.67;;;6.10;51.80;;;;;;5010139;28;20804;-43
2021/03/20 00:31:24;;;;;;;10.37;7.77;;;6.10;51.80;;;;;;5004296;28;20581;-42
2021/03/20 00:33:50;;;;;;;14.67;8.00;;;6.00;51.80;;;;;;5009249;28;20437;-41
2021/03/20 00:36:17;;;;;;;10.80;8.63;;;6.00;51.80;;;;;;5010741;28;20452;-41
2021/03/20 00:38:42;;;;;;;9.80;8.20;;;6.00;51.90;;;;;;5001552;28;20186;-42
2021/03/20 00:41:10;;;;;;;17.37;9.80;;;6.00;51.90;;;;;;5001082;28;20456;-41
2021/03/20 00:43:36;;;;;;;15.13;9.80;;;6.00;52.10;;;;;;5008444;28;20198;-41
2021/03/20 00:46:03;;;;;;;15.03;8.73;;;6.00;52.20;;;;;;5009552;28;20524;-41
2021/03/20 00:48:31;;;;;;;15.70;9.77;;;5.90;52.10;;;;;;5010028;28;20447;-42
2021/03/20 00:50:58;;;;;;;14.80;10.43;;;5.90;52.10;;;;;;5010680;28;20611;-42
2021/03/20 00:53:24;;;;;;;14.47;10.03;;;5.90;52.30;;;;;;5002684;28;20524;-42
2021/03/20 00:55:51;;;;;;;17.27;10.40;;;5.90;52.50;;;;;;5000873;28;20457;-42
2021/03/20 00:58:25;;;;;;;13.50;9.73;;;5.90;53.10;;;;;;5009622;28;20451;-42
2021/03/20 01:01:03;;;;;;;12.40;9.27;;;5.80;52.60;;;;;;5006942;28;20449;-41
2021/03/20 01:03:28;;;;;;;12.30;9.37;;;5.70;52.80;;;;;;5007918;28;20448;-41
2021/03/20 01:05:54;;;;;;;13.10;9.07;;;5.70;52.80;;;;;;5009816;28;20452;-42
2021/03/20 01:08:21;;;;;;;15.30;10.00;;;5.70;52.50;;;;;;5005117;28;20220;-42
2021/03/20 01:10:47;;;;;;;11.80;9.00;;;5.70;52.20;;;;;;5007359;28;20499;-42
2021/03/20 01:13:14;;;;;;;12.87;9.20;;;5.70;52.10;;;;;;5007918;28;20476;-41
2021/03/20 01:15:40;;;;;;;12.93;9.93;;;5.60;52.00;;;;;;5009241;28;20441;-43
2021/03/20 01:18:05;;;;;;;14.10;10.70;;;5.60;52.10;;;;;;5008052;28;20506;-41
2021/03/20 01:20:31;;;;;;;16.53;10.27;;;5.50;52.10;;;;;;5008977;28;20924;-42
2021/03/20 01:22:57;;;;;;;14.50;9.70;;;5.50;52.40;;;;;;5010045;28;20217;-43
2021/03/20 01:25:23;;;;;;;12.63;9.60;;;5.50;53.10;;;;;;5008762;28;20975;-42
2021/03/20 01:27:50;;;;;;;16.43;9.83;;;5.50;53.20;;;;;;5004966;28;20221;-41
2021/03/20 01:30:20;;;;;;;11.30;7.97;;;5.50;53.20;;;;;;5004474;28;20601;-41
2021/03/20 01:32:45;;;;;;;12.30;9.60;;;5.60;53.20;;;;;;5008562;28;20460;-42
2021/03/20 01:35:11;;;;;;;11.20;9.00;;;5.60;52.80;;;;;;5008931;28;20936;-42
2021/03/20 01:37:36;;;;;;;14.10;10.13;;;5.60;52.50;;;;;;5008854;28;20198;-42
2021/03/20 01:40:05;;;;;;;12.93;9.33;;;5.50;52.60;;;;;;5008363;28;20183;-42
2021/03/20 01:42:31;;;;;;;11.20;8.73;;;5.50;52.70;;;;;;5008079;28;20198;-42
2021/03/20 01:45:23;;;;;;;12.50;9.37;;;5.50;53.20;;;;;;5000591;28;20434;-41
2021/03/20 01:47:59;;;;;;;12.13;8.37;;;5.50;53.60;;;;;;4997047;28;20198;-42
2021/03/20 01:50:40;;;;;;;9.77;7.73;;;5.50;54.20;;;;;;5004192;28;20459;-41
2021/03/20 01:53:16;;;;;;;14.70;8.43;;;5.60;53.70;;;;;;5009418;28;20484;-41
2021/03/20 01:55:43;;;;;;;13.47;9.57;;;5.60;53.50;;;;;;5009091;28;20502;-42
2021/03/20 01:58:09;;;;;;;12.47;9.10;;;5.50;53.40;;;;;;5001643;28;20489;-42
2021/03/20 02:00:39;;;;;;;11.63;8.13;;;5.60;53.50;;;;;;5002598;28;20542;-42
2021/03/20 02:03:17;;;;;;;13.60;7.90;;;5.60;53.80;;;;;;5007110;28;20605;-41
2021/03/20 02:05:44;;;;;;;13.70;8.50;;;5.50;54.10;;;;;;5007737;28;20448;-41
2021/03/20 02:08:12;;;;;;;14.20;8.30;;;5.50;54.00;;;;;;5007664;28;20444;-41
2021/03/20 02:10:40;;;;;;;11.37;7.93;;;5.60;53.70;;;;;;4980444;28;20536;-42
2021/03/20 02:13:12;;;;;;;10.30;7.77;;;5.60;53.70;;;;;;5006093;28;20827;-42
2021/03/20 02:15:50;;;;;;;8.57;7.53;;;5.60;53.60;;;;;;5006881;28;20503;-41
2021/03/20 02:18:20;;;;;;;11.27;8.57;;;5.70;53.70;;;;;;5002311;28;20440;-42
2021/03/20 02:21:03;;;;;;;12.83;7.83;;;5.70;53.70;;;;;;5011857;28;20472;-42
2021/03/20 02:23:53;;;;;;;11.33;8.97;;;5.70;53.70;;;;;;5011403;28;20547;-41
2021/03/20 02:26:37;;;;;;;12.50;9.10;;;5.80;53.60;;;;;;5011286;28;20875;-42
2021/03/20 02:29:39;;;;;;;9.73;8.70;;;5.70;53.60;;;;;;5003537;28;20477;-42
2021/03/20 02:32:23;;;;;;;11.50;8.30;;;5.70;54.20;;;;;;5008559;28;20491;-41
2021/03/20 02:35:20;;;;;;;8.87;7.47;;;5.60;54.10;;;;;;5010843;28;20460;-42
2021/03/20 02:38:10;;;;;;;10.90;7.93;;;5.70;54.30;;;;;;5000944;28;20826;-42
2021/03/20 02:40:57;;;;;;;11.70;8.70;;;5.70;54.60;;;;;;5005187;28;20552;-42
2021/03/20 02:43:44;;;;;;;18.93;10.80;;;5.80;54.30;;;;;;5011009;28;20591;-44
2021/03/20 02:46:25;;;;;;;16.00;10.70;;;5.80;54.20;;;;;;5011038;28;20476;-43
2021/03/20 02:49:01;;;;;;;15.90;9.00;;;5.90;54.30;;;;;;5012398;28;20445;-41
2021/03/20 02:51:43;;;;;;;18.23;10.63;;;5.90;54.20;;;;;;5003318;28;20563;-42
2021/03/20 02:54:27;;;;;;;14.77;9.80;;;5.90;54.20;;;;;;5012885;28;20966;-42
2021/03/20 02:57:05;;;;;;;11.57;7.77;;;5.90;54.40;;;;;;5009926;28;20445;-41
2021/03/20 02:59:35;;;;;;;11.17;7.67;;;5.90;54.50;;;;;;5010862;28;21005;-42
2021/03/20 03:02:05;;;;;;;9.30;7.37;;;5.90;54.70;;;;;;5006131;28;20510;-42
2021/03/20 03:04:37;;;;;;;14.37;7.80;;;6.00;54.60;;;;;;5006527;28;20544;-42
2021/03/20 03:07:09;;;;;;;9.13;7.17;;;6.00;54.50;;;;;;5012788;28;20531;-42
2021/03/20 03:10:01;;;;;;;8.90;7.37;;;6.00;54.50;;;;;;5011242;28;20449;-42
2021/03/20 03:12:35;;;;;;;10.00;7.13;;;6.00;54.50;;;;;;5006219;28;20913;-41
2021/03/20 03:15:11;;;;;;;11.30;7.40;;;6.00;54.60;;;;;;5010549;28;20945;-41
2021/03/20 03:17:41;;;;;;;8.57;6.87;;;6.00;54.60;;;;;;5012898;28;20467;-41
2021/03/20 03:20:18;;;;;;;9.63;7.00;;;6.00;54.60;;;;;;5010078;28;20528;-43
2021/03/20 03:23:07;;;;;;;12.60;7.83;;;6.00;54.70;;;;;;5010729;28;20440;-42
2021/03/20 03:25:37;;;;;;;9.33;7.17;;;6.00;54.70;;;;;;5011146;28;20449;-41
2021/03/20 03:28:07;;;;;;;8.50;6.50;;;6.10;54.70;;;;;;5005139;28;20968;-41
2021/03/20 03:30:34;;;;;;;10.27;6.80;;;6.10;54.70;;;;;;5005042;28;20456;-43
2021/03/20 03:33:32;;;;;;;7.23;6.00;;;6.20;54.40;;;;;;5009604;28;20456;-42
2021/03/20 03:36:04;;;;;;;8.73;6.77;;;6.10;54.20;;;;;;4992354;28;20453;-41
2021/03/20 03:38:59;;;;;;;7.80;6.17;;;6.10;54.10;;;;;;5000358;28;20446;-41
2021/03/20 03:41:36;;;;;;;11.90;9.10;;;6.10;54.10;;;;;;5005665;28;20480;-43
2021/03/20 03:44:03;;;;;;;11.23;8.53;;;6.10;54.20;;;;;;5011460;28;20536;-42
2021/03/20 03:46:32;;;;;;;14.60;9.80;;;6.20;54.30;;;;;;5010228;28;20449;-42
2021/03/20 03:49:01;;;;;;;11.97;9.47;;;6.20;54.60;;;;;;5011412;28;20456;-41
2021/03/20 03:51:27;;;;;;;12.23;8.53;;;6.20;54.50;;;;;;5010661;28;20583;-41
2021/03/20 03:53:54;;;;;;;12.90;7.90;;;6.20;54.30;;;;;;5010315;28;20445;-41
2021/03/20 03:56:42;;;;;;;7.70;6.40;;;6.20;54.40;;;;;;5010377;28;20836;-41
2021/03/20 03:59:13;;;;;;;11.33;7.53;;;6.20;54.30;;;;;;5003320;28;20460;-42
2021/03/20 04:02:16;;;;;;;12.47;9.00;;;6.20;54.30;;;;;;5009328;28;20449;-42
2021/03/20 04:05:18;;;;;;;11.40;8.57;;;6.30;54.50;;;;;;5000397;28;20519;-42
2021/03/20 04:08:19;;;;;;;12.93;9.37;;;6.10;54.50;;;;;;4975271;28;20483;-42
2021/03/20 04:10:59;;;;;;;9.80;7.60;;;6.20;54.60;;;;;;4989403;28;20488;-42
2021/03/20 04:13:53;;;;;;;12.03;8.07;;;6.10;54.60;;;;;;5006996;28;20464;-41
2021/03/20 04:16:29;;;;;;;12.47;9.10;;;6.00;54.40;;;;;;5007662;28;20479;-42
2021/03/20 04:19:20;;;;;;;14.43;8.00;;;6.00;54.90;;;;;;5010959;28;20807;-41
2021/03/20 04:21:54;;;;;;;11.40;8.57;;;6.10;55.00;;;;;;5009338;28;20456;-42
2021/03/20 04:24:42;;;;;;;13.47;8.30;;;6.10;55.00;;;;;;4997959;28;20453;-41
2021/03/20 04:27:15;;;;;;;11.07;7.10;;;6.10;55.10;;;;;;5007760;28;20557;-42
2021/03/20 04:29:46;;;;;;;10.00;7.77;;;6.10;55.10;;;;;;5004618;28;20925;-42
2021/03/20 04:32:15;;;;;;;10.60;8.77;;;6.10;54.90;;;;;;5010292;28;21662;-42
2021/03/20 04:34:46;;;;;;;12.47;11.17;;;6.10;55.00;;;;;;5007312;28;20449;-41
2021/03/20 04:37:19;;;;;;;7.83;7.00;;;6.10;55.00;;;;;;5005325;28;20445;-41
2021/03/20 04:39:51;;;;;;;8.77;6.93;;;6.10;54.90;;;;;;5009176;28;20827;-42
2021/03/20 04:42:23;;;;;;;7.60;6.80;;;6.10;55.00;;;;;;5003920;28;20480;-42
2021/03/20 04:44:49;;;;;;;9.00;6.73;;;6.00;55.40;;;;;;5006638;28;21376;-42
2021/03/20 04:47:19;;;;;;;8.60;6.83;;;6.10;55.20;;;;;;5010984;28;20451;-41
2021/03/20 04:49:58;;;;;;;10.63;7.30;;;6.10;54.80;;;;;;5008435;28;20871;-41
2021/03/20 04:52:27;;;;;;;8.53;6.90;;;6.10;55.10;;;;;;4998142;28;21006;-41
2021/03/20 04:54:53;;;;;;;7.50;6.70;;;6.10;54.40;;;;;;5002909;28;20457;-41
2021/03/20 04:57:37;;;;;;;7.87;6.30;;;6.10;54.20;;;;;;5009130;28;20449;-41
2021/03/20 05:00:09;;;;;;;8.03;6.23;;;6.00;54.50;;;;;;5005416;28;20194;-42
2021/03/20 05:02:53;;;;;;;11.50;6.80;;;5.80;55.70;;;;;;5009488;28;21587;-41
2021/03/20 05:05:24;;;;;;;8.30;6.40;;;5.80;55.90;;;;;;5010465;28;20456;-41
2021/03/20 05:07:52;;;;;;;7.63;6.33;;;5.90;55.60;;;;;;5009799;28;20480;-41
2021/03/20 05:10:32;;;;;;;7.47;6.17;;;6.00;55.40;;;;;;5006537;28;20568;-41
2021/03/20 05:13:00;;;;;;;7.77;6.60;;;6.10;55.20;;;;;;5004579;28;20495;-42
2021/03/20 05:15:33;;;;;;;7.63;5.90;;;6.10;55.00;;;;;;5009480;28;20487;-42
2021/03/20 05:17:59;;;;;;;10.80;5.60;;;6.10;54.80;;;;;;5010109;28;20948;-41
2021/03/20 05:20:25;;;;;;;6.67;6.07;;;6.10;54.70;;;;;;5008688;28;20445;-41
2021/03/20 05:22:50;;;;;;;8.23;5.90;;;6.10;54.60;;;;;;5001156;28;20217;-41
2021/03/20 05:25:20;;;;;;;8.00;5.70;;;6.10;54.50;;;;;;5005570;28;20947;-42
2021/03/20 05:27:46;;;;;;;8.27;6.30;;;6.00;54.60;;;;;;5006287;28;20194;-43
2021/03/20 05:30:14;;;;;;;10.23;6.30;;;6.00;54.90;;;;;;5007614;28;20971;-42
2021/03/20 05:32:40;;;;;;;7.70;6.37;;;6.00;54.70;;;;;;5004686;28;20878;-41
2021/03/20 05:35:10;;;;;;;7.50;6.53;;;6.10;54.40;;;;;;5004022;28;20966;-42
2021/03/20 05:37:38;;;;;;;9.50;7.30;;;6.10;54.20;;;;;;5008604;28;20445;-42
2021/03/20 05:40:11;;;;;;;6.90;6.30;;;6.10;54.00;;;;;;5008570;28;20448;-41
2021/03/20 05:42:46;;;;;;;7.70;5.77;;;6.10;54.30;;;;;;5007457;28;22321;-41
2021/03/20 05:45:18;;;;;;;8.07;6.50;;;6.10;54.30;;;;;;4998153;28;20849;-42
2021/03/20 05:48:01;;;;;;;7.90;6.13;;;6.00;54.00;;;;;;5003893;28;20452;-41
2021/03/20 05:50:32;;;;;;;7.90;6.00;;;6.00;54.00;;;;;;5003595;28;20454;-41
2021/03/20 05:53:16;;;;;;;6.27;5.67;;;6.00;54.00;;;;;;5007198;28;20480;-41
2021/03/20 05:55:52;;;;;;;8.20;6.23;;;6.00;54.00;;;;;;4991884;28;20936;-42
2021/03/20 05:58:39;;;;;;;8.10;5.60;;;6.00;53.80;;;;;;5007147;28;20924;-42
2021/03/20 06:01:33;;;;;;;5.87;4.60;;;6.00;53.60;;;;;;5006341;28;20805;-42
2021/03/20 06:04:07;;;;;;;5.80;5.13;;;6.00;53.70;;;;;;5006201;28;20441;-42
2021/03/20 06:07:07;;;;;;;10.50;5.50;;;6.00;53.80;;;;;;5007546;28;20908;-42
2021/03/20 06:10:00;;;;;;;6.90;5.67;;;6.00;53.80;;;;;;5003675;28;20507;-42
2021/03/20 06:13:07;;;;;;;7.40;6.20;;;6.10;53.90;;;;;;5006259;28;20990;-42
2021/03/20 06:15:41;;;;;;;9.40;6.17;;;6.10;54.00;;;;;;4972973;28;20539;-41
2021/03/20 06:18:44;;;;;;;6.43;5.13;;;6.20;55.30;;;;;;5003143;28;20448;-40
2021/03/20 06:21:18;;;;;;;7.07;5.10;;;6.70;57.30;;;;;;5005363;28;20830;-41
2021/03/20 06:24:15;;;;;;;8.87;5.37;;;7.10;55.90;;;;;;5006264;28;20498;-41
2021/03/20 06:26:43;;;;;;;5.80;4.80;;;7.40;54.70;;;;;;5002712;28;20448;-41
2021/03/20 06:29:33;;;;;;;6.90;5.40;;;7.70;54.00;;;;;;5008575;28;20513;-41
2021/03/20 06:32:19;;;;;;;8.30;6.70;;;8.00;53.10;;;;;;5005467;28;21242;-41
2021/03/20 06:35:22;;;;;;;8.93;5.90;;;8.30;52.40;;;;;;5006185;28;20456;-41
2021/03/20 06:37:53;;;;;;;6.17;4.67;;;8.50;51.40;;;;;;4987466;28;20472;-41
2021/03/20 06:40:37;;;;;;;15.13;4.93;;;8.70;50.40;;;;;;5006660;28;20445;-41
2021/03/20 06:43:03;;;;;;;4.20;3.80;;;8.80;49.30;;;;;;5009279;28;20512;-41
2021/03/20 06:45:31;;;;;;;4.70;4.30;;;8.90;48.80;;;;;;5005403;28;20444;-41
2021/03/20 06:48:09;;;;;;;3.83;3.13;;;8.90;47.10;;;;;;5010797;28;20553;-41
2021/03/20 06:50:50;;;;;;;3.83;3.37;;;8.80;46.00;;;;;;5009846;28;20436;-41
2021/03/20 06:53:18;;;;;;;3.90;3.10;;;8.80;46.20;;;;;;5009506;28;20582;-41
2021/03/20 06:55:48;;;;;;;4.43;3.40;;;8.90;46.10;;;;;;5008234;28;20428;-41
2021/03/20 06:58:36;;;;;;;3.73;3.10;;;8.90;45.50;;;;;;5009683;28;20443;-41
2021/03/20 07:01:12;;;;;;;6.03;3.23;;;9.10;45.90;;;;;;5010744;28;20437;-41
2021/03/20 07:03:56;;;;;;;3.30;2.87;;;9.20;46.00;;;;;;5014196;28;20444;-41
2021/03/20 07:06:37;;;;;;;3.73;3.07;;;9.20;45.10;;;;;;5010009;28;20847;-41
2021/03/20 07:09:06;;;;;;;4.93;2.90;;;9.20;44.90;;;;;;5012879;28;20436;-41
2021/03/20 07:11:35;;;;;;;2.73;2.53;;;9.00;43.70;;;;;;5009428;28;20630;-41
2021/03/20 07:14:08;;;;;;;3.40;3.10;;;8.90;43.90;;;;;;5009250;28;20441;-41
2021/03/20 07:17:26;;;;;;;3.50;3.20;;;9.00;44.80;;;;;;5006273;28;20964;-41
2021/03/20 07:19:54;;;;;;;3.87;3.20;;;8.90;44.10;;;;;;4951347;29;20470;-41
2021/03/20 07:22:26;;;;;;;3.80;3.13;;;8.90;43.90;;;;;;5002269;28;20453;-41
2021/03/20 07:24:51;;;;;;;3.00;2.80;;;8.90;43.90;;;;;;5006272;28;20441;-41
2021/03/20 07:27:17;;;;;;;3.63;3.00;;;8.90;44.10;;;;;;5005992;28;20447;-41
2021/03/20 07:29:53;;;;;;;3.93;3.33;;;8.90;43.50;;;;;;5002095;28;20242;-41
2021/03/20 07:32:25;;;;;;;3.87;2.63;;;9.00;44.10;;;;;;5006478;28;20301;-41
2021/03/20 07:35:11;;;;;;;4.13;3.80;;;9.10;43.40;;;;;;5018907;28;20531;-41
2021/03/20 07:37:37;;;;;;;3.33;3.00;;;9.20;43.70;;;;;;5013764;28;20913;-41
2021/03/20 07:40:13;;;;;;;3.87;3.10;;;9.40;44.00;;;;;;5009799;28;20964;-41
2021/03/20 07:42:41;;;;;;;2.93;2.63;;;9.60;43.90;;;;;;5008880;28;20447;-41
2021/03/20 07:45:25;;;;;;;3.63;3.10;;;9.60;42.90;;;;;;5012532;28;20506;-41
2021/03/20 07:47:54;;;;;;;3.90;3.30;;;9.60;41.80;;;;;;5004849;28;20437;-41
2021/03/20 07:50:22;;;;;;;3.37;3.03;;;9.50;41.80;;;;;;5004230;28;20616;-41
2021/03/20 07:53:13;;;;;;;4.40;3.70;;;9.60;42.00;;;;;;5008825;28;20830;-41
2021/03/20 07:55:56;;;;;;;3.27;2.97;;;9.50;41.90;;;;;;4994434;28;20951;-41
2021/03/20 07:58:31;;;;;;;6.77;3.20;;;9.60;42.30;;;;;;4992969;28;20494;-41
2021/03/20 08:01:00;;;;;;;4.00;3.60;;;9.90;42.60;;;;;;5001845;28;20448;-41
2021/03/20 08:03:33;;;;;;;4.30;3.33;;;10.10;40.70;;;;;;5003708;28;20473;-41
2021/03/20 08:06:39;;;;;;;3.67;3.20;;;10.20;39.80;;;;;;5010459;28;20499;-41
2021/03/20 08:09:17;;;;;;;3.80;2.90;;;10.10;39.70;;;;;;4982733;28;20437;-41
2021/03/20 08:11:44;;;;;;;4.43;3.07;;;10.10;39.90;;;;;;5011516;28;20824;-41
2021/03/20 08:14:16;;;;;;;2.87;2.60;;;10.20;39.90;;;;;;5011422;28;20433;-41
2021/03/20 08:16:42;;;;;;;3.60;3.30;;;10.10;39.10;;;;;;5012451;28;20448;-41
2021/03/20 08:19:15;;;;;;;3.20;2.90;;;10.10;39.60;;;;;;5013073;28;20483;-41
2021/03/20 08:21:59;;;;;;;5.93;3.67;;;10.10;39.30;;;;;;5008834;28;20810;-42
2021/03/20 08:24:29;;;;;;;3.10;2.50;;;10.10;38.70;;;;;;5008520;28;20445;-41
2021/03/20 08:27:22;;;;;;;3.30;2.77;;;10.00;37.70;;;;;;5010553;28;20464;-41
2021/03/20 08:29:55;;;;;;;4.50;3.03;;;10.00;38.30;;;;;;4990759;28;20442;-41
2021/03/20 08:32:27;;;;;;;3.40;2.87;;;10.10;38.10;;;;;;5008527;28;20602;-41
2021/03/20 08:35:12;;;;;;;3.50;2.43;;;10.10;37.90;;;;;;5003028;28;20445;-41
2021/03/20 08:38:08;;;;;;;4.10;2.87;;;10.10;37.10;;;;;;4985139;28;20982;-41
2021/03/20 08:40:57;;;;;;;2.90;2.70;;;10.00;36.50;;;;;;5004090;28;20540;-41
2021/03/20 08:43:57;;;;;;;2.63;2.40;;;9.60;35.10;;;;;;5001460;28;20511;-41
2021/03/20 08:46:40;;;;;;;2.70;2.50;;;9.40;35.50;;;;;;5008766;28;20445;-41
2021/03/20 08:49:42;;;;;;;3.33;2.87;;;9.20;35.90;;;;;;5004673;28;20532;-40
2021/03/20 08:52:22;;;;;;;2.53;2.30;;;9.20;36.10;;;;;;5007637;28;20488;-40
2021/03/20 08:55:22;;;;;;;2.60;2.40;;;9.20;36.90;;;;;;5001944;28;20444;-40
2021/03/20 08:58:06;;;;;;;3.23;2.30;;;9.20;37.40;;;;;;4998585;28;20814;-40
2021/03/20 09:00:47;;;;;;;2.57;2.33;;;9.20;35.70;;;;;;5010744;28;20538;-40
2021/03/20 09:03:19;;;;;;;2.80;2.60;;;9.00;36.30;;;;;;4994161;28;20448;-40
2021/03/20 09:05:52;;;;;;;3.27;2.13;;;9.20;35.30;;;;;;5011596;28;20469;-40
2021/03/20 09:08:28;;;;;;;1.97;1.73;;;9.20;33.50;;;;;;5008307;28;20435;-41
2021/03/20 09:11:02;;;;;;;2.33;1.70;;;9.20;31.80;;;;;;5002595;28;20447;-40
2021/03/20 09:14:06;;;;;;;2.10;1.70;;;9.30;32.20;;;;;;5005670;28;20503;-41
2021/03/20 09:16:47;;;;;;;6.70;1.70;;;9.40;31.50;;;;;;4993279;28;20842;-41
2021/03/20 09:19:23;;;;;;;1.97;1.60;;;9.40;30.00;;;;;;5006753;28;20451;-41
2021/03/20 09:21:52;;;;;;;1.80;1.60;;;9.60;31.10;;;;;;5007180;28;20806;-41
2021/03/20 09:24:29;;;;;;;1.90;1.70;;;9.70;32.20;;;;;;5003620;28;20800;-41
2021/03/20 09:26:57;;;;;;;1.63;1.53;;;10.00;31.30;;;;;;5007384;28;20444;-41
2021/03/20 09:29:29;;;;;;;2.10;2.00;;;10.30;31.10;;;;;;5010187;28;20996;-41
2021/03/20 09:31:55;;;;;;;2.50;1.47;;;10.40;30.10;;;;;;5007736;28;20492;-42
2021/03/20 09:34:37;;;;;;;2.07;1.80;;;10.70;29.70;;;;;;5005954;28;20955;-42
2021/03/20 09:37:18;;;;;;;1.60;1.50;;;10.80;30.00;;;;;;5009817;28;20208;-43
2021/03/20 09:39:48;;;;;;;2.63;2.00;;;10.80;29.70;;;;;;5000512;28;20789;-42
2021/03/20 09:42:26;;;;;;;3.10;1.87;;;10.60;29.10;;;;;;5002161;28;20528;-42
2021/03/20 09:44:55;;;;;;;2.57;1.90;;;10.60;28.60;;;;;;5010626;28;21146;-42
2021/03/20 09:47:35;;;;;;;1.90;1.80;;;10.90;27.50;;;;;;4996111;28;20480;-43
2021/03/20 09:50:18;;;;;;;1.50;1.40;;;11.00;29.10;;;;;;5004504;28;20443;-42
2021/03/20 09:52:48;;;;;;;2.80;2.60;;;11.20;30.70;;;;;;5001354;28;20563;-42
2021/03/20 09:55:29;;;;;;;2.53;2.33;;;11.10;29.40;;;;;;5007135;28;20484;-43
2021/03/20 09:58:00;;;;;;;2.30;2.10;;;11.20;28.50;;;;;;5003640;28;20452;-43
2021/03/20 10:00:44;;;;;;;1.80;1.70;;;11.30;29.50;;;;;;5008870;28;20440;-43
2021/03/20 10:03:10;;;;;;;1.93;1.83;;;11.30;29.20;;;;;;5010753;28;20499;-42
2021/03/20 10:05:36;;;;;;;1.77;1.20;;;11.20;29.40;;;;;;5010581;28;20468;-42
2021/03/20 10:08:20;;;;;;;1.93;1.50;;;11.50;29.00;;;;;;5008032;28;20201;-43
2021/03/20 10:10:51;;;;;;;2.57;1.80;;;11.80;27.30;;;;;;5010398;28;20436;-42
2021/03/20 10:13:23;;;;;;;1.70;1.60;;;11.90;26.80;;;;;;4997993;28;20471;-43
2021/03/20 10:16:01;;;;;;;2.83;1.57;;;11.80;26.40;;;;;;5010567;28;20451;-43
2021/03/20 10:18:51;;;;;;;3.10;1.90;;;11.90;25.90;;;;;;5011069;28;20510;-42
2021/03/20 10:21:28;;;;;;;1.70;1.60;;;12.10;26.80;;;;;;5003467;28;20535;-42
2021/03/20 10:24:19;;;;;;;2.13;1.77;;;12.20;27.30;;;;;;5003394;28;20432;-43
2021/03/20 10:27:00;;;;;;;1.87;1.77;;;12.30;26.70;;;;;;5001735;28;20446;-43
2021/03/20 10:29:29;;;;;;;3.43;1.93;;;12.40;26.90;;;;;;5009287;28;20508;-43
2021/03/20 10:32:04;;;;;;;1.93;1.83;;;12.40;27.20;;;;;;4992768;28;20534;-43
2021/03/20 10:34:47;;;;;;;1.53;1.33;;;12.40;27.80;;;;;;5010600;28;20448;-43
2021/03/20 10:37:14;;;;;;;2.50;1.60;;;12.60;27.90;;;;;;5013144;28;20432;-43
2021/03/20 10:39:43;;;;;;;3.43;2.00;;;12.70;26.10;;;;;;5013440;28;20436;-43
2021/03/20 10:42:32;;;;;;;1.80;1.67;;;12.90;27.40;;;;;;5014031;28;21160;-43
2021/03/20 10:45:03;;;;;;;3.47;2.10;;;13.10;28.10;;;;;;5013429;28;20811;-43
2021/03/20 10:47:34;;;;;;;1.83;1.73;;;13.20;27.40;;;;;;5012315;28;20437;-43
2021/03/20 10:50:14;;;;;;;4.60;2.13;;;13.00;24.80;;;;;;5006836;28;20799;-43
2021/03/20 10:52:42;;;;;;;2.40;1.60;;;12.90;25.00;;;;;;5002136;28;20995;-43
2021/03/20 10:55:37;;;;;;;2.03;1.83;;;12.90;25.00;;;;;;5004435;28;20516;-43
2021/03/20 10:58:05;;;;;;;2.10;1.90;;;13.00;26.90;;;;;;5004330;28;20437;-43
2021/03/20 11:00:41;;;;;;;3.60;2.30;;;12.80;26.60;;;;;;5000781;28;20433;-43
2021/03/20 11:03:28;;;;;;;2.10;2.00;;;12.90;27.30;;;;;;5012383;28;20539;-43
2021/03/20 11:05:54;;;;;;;3.57;2.47;;;13.20;28.10;;;;;;5013353;28;20433;-43
2021/03/20 11:08:19;;;;;;;2.10;1.90;;;13.60;27.70;;;;;;5013069;28;20445;-43
2021/03/20 11:10:49;;;;;;;2.10;1.90;;;13.60;26.50;;;;;;5010968;28;20444;-40
2021/03/20 11:13:17;;;;;;;4.10;2.40;;;13.50;26.30;;;;;;5008478;28;20244;-40
2021/03/20 11:15:46;;;;;;;2.93;2.60;;;13.70;27.10;;;;;;5010594;28;20804;-41
2021/03/20 11:18:29;;;;;;;2.00;1.90;;;13.80;26.30;;;;;;5013106;28;20954;-42
2021/03/20 11:20:54;;;;;;;2.40;2.17;;;13.80;25.20;;;;;;5010072;28;20936;-43
2021/03/20 11:23:28;;;;;;;5.37;2.20;;;13.90;26.40;;;;;;5012988;28;20518;-44
2021/03/20 11:25:54;;;;;;;2.53;2.33;;;13.90;27.10;;;;;;5006501;28;20650;-43
2021/03/20 11:28:34;;;;;;;6.40;1.70;;;14.10;27.10;;;;;;4988906;28;20441;-43
2021/03/20 11:31:02;;;;;;;2.37;2.20;;;14.10;25.90;;;;;;5003178;28;20862;-44
2021/03/20 11:33:31;;;;;;;2.60;2.20;;;14.10;26.80;;;;;;5004530;28;20576;-43
2021/03/20 11:36:00;;;;;;;1.87;1.77;;;14.10;26.90;;;;;;4999073;28;20437;-43
2021/03/20 11:38:27;;;;;;;2.70;2.50;;;14.20;25.70;;;;;;5013005;28;20433;-43
2021/03/20 11:41:02;;;;;;;2.40;2.13;;;14.40;26.10;;;;;;5007740;28;20437;-43
2021/03/20 11:43:38;;;;;;;2.57;2.37;;;14.40;26.80;;;;;;5010705;28;20436;-43
2021/03/20 11:46:19;;;;;;;3.50;2.50;;;14.30;26.50;;;;;;5012811;28;20428;-46
2021/03/20 11:49:01;;;;;;;4.30;2.20;;;14.40;26.50;;;;;;4992524;28;20781;-45
2021/03/20 11:51:30;;;;;;;2.03;1.93;;;14.60;26.40;;;;;;5011797;28;20538;-43
2021/03/20 11:54:00;;;;;;;2.57;2.37;;;14.70;25.60;;;;;;5000116;28;20861;-44
2021/03/20 11:56:30;;;;;;;1.60;1.50;;;14.60;24.50;;;;;;5012433;28;20499;-43
2021/03/20 11:58:58;;;;;;;2.30;2.00;;;14.70;25.20;;;;;;5012394;28;20468;-43
2021/03/20 12:01:33;;;;;;;2.97;1.90;;;14.70;24.50;;;;;;5011640;28;20524;-43
2021/03/20 12:04:11;;;;;;;2.00;1.70;;;14.90;24.40;;;;;;5011055;28;20797;-43
2021/03/20 12:06:37;;;;;;;2.40;2.20;;;15.00;25.00;;;;;;5011871;28;20445;-43
2021/03/20 12:09:21;;;;;;;2.33;2.10;;;15.10;25.50;;;;;;5012285;28;20460;-43
2021/03/20 12:11:46;;;;;;;2.70;2.13;;;15.10;25.50;;;;;;5003740;28;20480;-43
2021/03/20 12:14:29;;;;;;;3.53;2.23;;;15.10;24.30;;;;;;5012020;28;20444;-45
2021/03/20 12:17:10;;;;;;;4.53;2.70;;;15.20;24.90;;;;;;5008565;28;20194;-44
2021/03/20 12:19:57;;;;;;;2.40;2.20;;;15.00;25.50;;;;;;5006529;28;20882;-43
2021/03/20 12:22:48;;;;;;;2.77;2.57;;;15.20;26.20;;;;;;5004452;28;20445;-43
2021/03/20 12:25:32;;;;;;;3.13;2.83;;;15.30;26.80;;;;;;5010453;28;20808;-42
2021/03/20 12:28:34;;;;;;;4.53;2.63;;;15.20;26.60;;;;;;5002929;28;20940;-43
2021/03/20 12:31:08;;;;;;;10.47;2.70;;;15.40;27.50;;;;;;5002667;28;20449;-43
2021/03/20 12:33:43;;;;;;;3.00;2.07;;;15.40;25.40;;;;;;5000439;28;20453;-43
2021/03/20 12:36:18;;;;;;;2.80;2.60;;;15.40;25.40;;;;;;5007004;28;20447;-43
2021/03/20 12:38:43;;;;;;;3.13;2.83;;;15.50;25.00;;;;;;5005503;28;20472;-43
2021/03/20 12:41:17;;;;;;;5.37;2.40;;;15.10;25.20;;;;;;5006777;28;20464;-43
2021/03/20 12:43:42;;;;;;;2.80;2.20;;;14.90;25.50;;;;;;5006820;28;20274;-43
2021/03/20 12:46:11;;;;;;;3.87;3.27;;;15.10;26.10;;;;;;5000835;28;21000;-43
2021/03/20 12:48:39;;;;;;;2.97;2.73;;;15.20;25.10;;;;;;5006776;28;20638;-43
2021/03/20 12:51:08;;;;;;;2.70;2.50;;;15.50;25.60;;;;;;5001870;28;21363;-44
2021/03/20 12:53:34;;;;;;;2.40;2.20;;;15.50;25.80;;;;;;5009501;28;20778;-42
2021/03/20 12:56:00;;;;;;;2.70;2.50;;;15.40;26.50;;;;;;5009305;28;20437;-44
2021/03/20 12:58:26;;;;;;;2.80;2.60;;;15.60;24.90;;;;;;5007445;28;20936;-46
2021/03/20 13:00:52;;;;;;;3.43;2.33;;;15.60;24.90;;;;;;5004581;28;20596;-43
2021/03/20 13:03:20;;;;;;;2.50;2.30;;;15.80;24.00;;;;;;5001403;28;20449;-44
2021/03/20 13:05:45;;;;;;;2.90;2.70;;;15.80;24.80;;;;;;4999190;28;20437;-40
2021/03/20 13:08:12;;;;;;;2.90;2.70;;;15.80;25.70;;;;;;5004705;28;20438;-41
2021/03/20 13:10:39;;;;;;;2.70;2.50;;;15.80;25.00;;;;;;5006111;28;20186;-40
2021/03/20 13:13:05;;;;;;;3.13;2.90;;;15.50;24.70;;;;;;4995368;28;21002;-42
2021/03/20 13:15:31;;;;;;;3.23;2.93;;;15.50;24.30;;;;;;5005230;28;20443;-42
2021/03/20 13:17:56;;;;;;;3.83;2.90;;;15.20;24.70;;;;;;5008149;28;20532;-40
2021/03/20 13:20:24;;;;;;;3.53;2.20;;;15.10;24.50;;;;;;5000655;28;20198;-40
2021/03/20 13:22:50;;;;;;;3.33;2.80;;;15.00;25.30;;;;;;5008546;28;20194;-40
2021/03/20 13:25:20;;;;;;;2.80;2.60;;;14.80;25.30;;;;;;5003837;28;20477;-41
2021/03/20 13:27:46;;;;;;;2.33;2.20;;;14.80;26.10;;;;;;4998924;28;22651;-40
2021/03/20 13:30:12;;;;;;;2.83;2.67;;;15.00;25.50;;;;;;5007719;28;20512;-41
2021/03/20 13:32:38;;;;;;;4.33;3.10;;;15.20;25.00;;;;;;5006414;28;20313;-41